»·PEaware :: SWA2151 KPHX-KDEN

SWA2151 :: KPHX-KDEN

FLIGHT INFORMATION

Flight Status: Arrived
Operator:
Southwest Airlines
More flights by this operator :: More flights under this callsign
Pilot: Tim M. (868)
Aircraft: BOEING 737-700
(B737)
More flights by this aircraft type
Origin: KPHX Phoenix Sky Harbor Intl
United States
Destination: KDEN Denver Intl
United States
More flights between these airports :: More routes between these airports
Route: MRBIL1 YOOPR SHNPS TBARR1
File this flight plan on PilotEdge
Remarks:
Altitude:
(Current/Filed)
39,000ft
Speed:
(Current/Filed)
462kts
Departed: 18-Jul-20 03:47 PM
Arrived: 18-Jul-20 05:05 PM
Distance/Time
Traveled:
523nm/1:18
Distance/Time
To Go:
Arrived

Flight Plot

Page will automatically refresh every two minutes.

Flight plan parsing failed; only flown route is shown


Map Options




Map Legend


Flown Route
Filed Route
Departure Airport
Arrival Airport
Navaid (VOR, NDB)
Fix

Horizontal Profiles

Position Reports

Time Latitude Longitude Heading Altitude Ground
Speed
18-Jul-20 15:11 33.433389 -111.994614 33 1143ft 0kts
18-Jul-20 15:12 33.433389 -111.994614 33 1143ft 0kts
18-Jul-20 15:13 33.433389 -111.994614 33 1143ft 0kts
18-Jul-20 15:14 33.433389 -111.994614 33 1143ft 0kts
18-Jul-20 15:15 33.433389 -111.994614 33 1143ft 0kts
18-Jul-20 15:16 33.433389 -111.994614 33 1143ft 0kts
18-Jul-20 15:17 33.433389 -111.994614 33 1143ft 0kts
18-Jul-20 15:18 33.433389 -111.994614 33 1143ft 0kts
18-Jul-20 15:19 33.433389 -111.994614 33 1143ft 0kts
18-Jul-20 15:20 33.433389 -111.994614 33 1143ft 0kts
18-Jul-20 15:21 33.433389 -111.994614 33 1143ft 0kts
18-Jul-20 15:22 33.433389 -111.994614 33 1143ft 0kts
18-Jul-20 15:23 33.433389 -111.994614 33 1143ft 0kts
18-Jul-20 15:24 33.433389 -111.994614 33 1143ft 0kts
18-Jul-20 15:25 33.433389 -111.994614 33 1143ft 0kts
18-Jul-20 15:26 33.433389 -111.994614 33 1143ft 0kts
18-Jul-20 15:27 33.433389 -111.994614 33 1143ft 0kts
18-Jul-20 15:28 33.433389 -111.994614 33 1143ft 0kts
18-Jul-20 15:29 33.433389 -111.994614 33 1143ft 0kts
18-Jul-20 15:30 33.433389 -111.994614 33 1143ft 0kts
18-Jul-20 15:31 33.433389 -111.994614 33 1143ft 0kts
18-Jul-20 15:33 33.433389 -111.994614 33 1143ft 0kts
18-Jul-20 15:34 33.433389 -111.994614 33 1143ft 0kts
18-Jul-20 15:35 33.433389 -111.994614 33 1143ft 0kts
18-Jul-20 15:36 33.433389 -111.994614 33 1143ft 0kts
18-Jul-20 15:37 33.433389 -111.994614 33 1143ft 0kts
18-Jul-20 15:38 33.433389 -111.994614 33 1143ft 0kts
18-Jul-20 15:39 33.433160 -111.994784 19 1143ft 2kts
18-Jul-20 15:40 33.432843 -111.994983 90 1143ft 0kts
18-Jul-20 15:41 33.432843 -111.994981 90 1143ft 0kts
18-Jul-20 15:42 33.432843 -111.994978 90 1143ft 0kts
18-Jul-20 15:43 33.432843 -111.994975 90 1143ft 0kts
18-Jul-20 15:44 33.432843 -111.994966 90 1143ft 1kts
18-Jul-20 15:45 33.432012 -111.993594 180 1143ft 0kts
18-Jul-20 15:46 33.431023 -111.994217 271 1143ft 0kts
18-Jul-20 15:47 33.431222 -112.022290 270 1615ft 148kts
18-Jul-20 15:47 33.431612 -112.063405 269 3584ft 157kts
18-Jul-20 15:49 33.433640 -112.135808 270 5484ft 233kts
18-Jul-20 15:50 33.467169 -112.207334 341 7524ft 290kts
18-Jul-20 15:50 33.533649 -112.195396 19 10353ft 300kts
18-Jul-20 15:51 33.619842 -112.163136 31 12377ft 361kts
18-Jul-20 15:53 33.704278 -112.058125 47 15815ft 384kts
18-Jul-20 15:53 33.765194 -111.978014 51 18224ft 396kts
18-Jul-20 15:54 33.833422 -111.868751 53 20508ft 419kts
18-Jul-20 15:56 33.917950 -111.734505 54 22827ft 442kts
18-Jul-20 15:56 33.980498 -111.635508 51 23035ft 445kts
18-Jul-20 15:57 34.077813 -111.541325 32 24550ft 459kts
18-Jul-20 15:58 34.187885 -111.457477 32 26175ft 473kts
18-Jul-20 15:59 34.300234 -111.370814 32 27598ft 485kts
18-Jul-20 16:00 34.415527 -111.282191 32 28800ft 497kts
18-Jul-20 16:01 34.532834 -111.190977 32 29877ft 506kts
18-Jul-20 16:02 34.652145 -111.099803 28 31281ft 504kts
18-Jul-20 16:03 34.775725 -111.020068 27 32813ft 500kts
18-Jul-20 16:04 34.897912 -110.939786 27 34325ft 497kts
18-Jul-20 16:05 35.019055 -110.860213 27 35916ft 490kts
18-Jul-20 16:06 35.138479 -110.781258 27 37290ft 485kts
18-Jul-20 16:07 35.256324 -110.703022 27 38495ft 481kts
18-Jul-20 16:08 35.373774 -110.624795 26 39168ft 480kts
18-Jul-20 16:09 35.490417 -110.546993 27 39184ft 477kts
18-Jul-20 16:10 35.607201 -110.468518 27 39174ft 477kts
18-Jul-20 16:11 35.710441 -110.366402 45 39166ft 480kts
18-Jul-20 16:12 35.801380 -110.245695 46 39187ft 480kts
18-Jul-20 16:13 35.892575 -110.124993 45 39202ft 480kts
18-Jul-20 16:14 35.983955 -110.005123 45 39212ft 480kts
18-Jul-20 16:15 36.074876 -109.884778 46 39220ft 479kts
18-Jul-20 16:16 36.165780 -109.763874 46 39227ft 479kts
18-Jul-20 16:17 36.256566 -109.642671 46 39233ft 479kts
18-Jul-20 16:18 36.346924 -109.521594 46 39238ft 479kts
18-Jul-20 16:19 36.437497 -109.399786 46 39261ft 479kts
18-Jul-20 16:20 36.527594 -109.278161 46 39274ft 479kts
18-Jul-20 16:21 36.617793 -109.155948 46 39275ft 477kts
18-Jul-20 16:22 36.707265 -109.034271 46 39278ft 477kts
18-Jul-20 16:23 36.797125 -108.911609 46 39260ft 477kts
18-Jul-20 16:24 36.886341 -108.789369 46 39245ft 477kts
18-Jul-20 16:25 36.975598 -108.666615 46 39248ft 477kts
18-Jul-20 16:26 37.065035 -108.543149 46 39257ft 477kts
18-Jul-20 16:27 37.153918 -108.419983 46 39263ft 477kts
18-Jul-20 16:28 37.242681 -108.296515 47 39275ft 477kts
18-Jul-20 16:29 37.331628 -108.172319 47 39310ft 477kts
18-Jul-20 16:30 37.420236 -108.048125 47 39342ft 478kts
18-Jul-20 16:31 37.508761 -107.923566 47 39369ft 477kts
18-Jul-20 16:32 37.597192 -107.798662 47 39410ft 477kts
18-Jul-20 16:33 37.685522 -107.673414 47 39456ft 477kts
18-Jul-20 16:34 37.773848 -107.547683 47 39476ft 477kts
18-Jul-20 16:35 37.861761 -107.422058 47 39471ft 477kts
18-Jul-20 16:36 37.949799 -107.296073 47 39459ft 477kts
18-Jul-20 16:37 38.037815 -107.169342 47 39497ft 480kts
18-Jul-20 16:38 38.126055 -107.041380 47 39480ft 486kts
18-Jul-20 16:39 38.213515 -106.910126 49 39430ft 482kts
18-Jul-20 16:40 38.298860 -106.779690 49 39482ft 481kts
18-Jul-20 16:41 38.384612 -106.648706 48 39539ft 481kts
18-Jul-20 16:42 38.470479 -106.517936 48 39648ft 481kts
18-Jul-20 16:43 38.555828 -106.386374 49 39765ft 481kts
18-Jul-20 16:44 38.641182 -106.254030 49 39728ft 481kts
18-Jul-20 16:45 38.727406 -106.122535 48 38413ft 485kts
18-Jul-20 16:46 38.814220 -105.989059 49 35080ft 488kts
18-Jul-20 16:47 38.901377 -105.854488 49 31466ft 491kts
18-Jul-20 16:48 38.988797 -105.719327 49 27552ft 486kts
18-Jul-20 16:49 39.072505 -105.588500 49 24357ft 464kts
18-Jul-20 16:50 39.152925 -105.462328 49 21256ft 443kts
18-Jul-20 16:51 39.228482 -105.342419 48 19004ft 399kts
18-Jul-20 16:52 39.284740 -105.237600 69 18651ft 334kts
18-Jul-20 16:53 39.326305 -105.130475 48 16423ft 337kts
18-Jul-20 16:54 39.385785 -105.038638 48 14428ft 331kts
18-Jul-20 16:55 39.442612 -104.952177 48 12556ft 318kts
18-Jul-20 16:56 39.497617 -104.869554 47 10980ft 297kts
18-Jul-20 16:57 39.551818 -104.789941 47 9111ft 292kts
18-Jul-20 16:58 39.602882 -104.717509 46 8403ft 252kts
18-Jul-20 16:59 39.651736 -104.661750 22 7856ft 208kts
18-Jul-20 17:00 39.700983 -104.659322 353 7610ft 162kts
18-Jul-20 17:01 39.745297 -104.661860 357 7058ft 161kts
18-Jul-20 17:02 39.787251 -104.661132 1 6229ft 141kts
18-Jul-20 17:03 39.827789 -104.660516 1 5513ft 151kts
18-Jul-20 17:04 39.851714 -104.660703 339 5439ft 28kts
18-Jul-20 17:05 39.854382 -104.662363 350 5439ft 13kts
18-Jul-20 17:06 39.857824 -104.662332 0 5439ft 11kts
18-Jul-20 17:07 39.860842 -104.662307 359 5439ft 10kts
18-Jul-20 17:08 39.864040 -104.662264 0 5439ft 12kts
18-Jul-20 17:09 39.864835 -104.665884 247 5439ft 15kts
18-Jul-20 17:10 39.864795 -104.671554 270 5439ft 19kts
18-Jul-20 17:11 39.864149 -104.675735 176 5439ft 7kts
18-Jul-20 17:12 39.863611 -104.675733 181 5439ft 0kts
18-Jul-20 17:13 39.863611 -104.675733 181 5439ft 0kts

Navigation Log

Ident Type
Flight plan parsing failed, navigation log unavailable